createdAt,value
2022-11-05T00:01:46.949Z,8.60
2022-11-05T00:04:07.438Z,8.60
2022-11-05T00:06:28.907Z,8.60
2022-11-05T00:08:50.669Z,8.60
2022-11-05T00:10:53.509Z,8.60
2022-11-05T00:13:16.286Z,8.60
2022-11-05T00:15:44.906Z,8.50
2022-11-05T00:17:47.602Z,8.50
2022-11-05T00:19:50.297Z,8.50
2022-11-05T00:22:10.786Z,8.50
2022-11-05T00:24:32.672Z,8.50
2022-11-05T00:26:35.337Z,8.40
2022-11-05T00:28:40.591Z,8.40
2022-11-05T00:30:43.294Z,8.40
2022-11-05T00:32:48.013Z,8.40
2022-11-05T00:34:50.681Z,8.40
2022-11-05T00:36:53.464Z,8.40
2022-11-05T00:38:56.122Z,8.40
2022-11-05T00:41:00.523Z,8.30
2022-11-05T00:43:21.160Z,8.30
2022-11-05T00:45:22.918Z,8.30
2022-11-05T00:47:43.199Z,8.30
2022-11-05T00:49:46.270Z,8.30
2022-11-05T00:52:12.156Z,8.30
2022-11-05T00:54:15.186Z,8.30
2022-11-05T00:56:19.249Z,8.30
2022-11-05T00:58:23.647Z,8.30
2022-11-05T01:00:28.400Z,8.40
2022-11-05T01:02:31.422Z,8.40
2022-11-05T01:04:34.187Z,8.30
2022-11-05T01:06:36.879Z,8.30
2022-11-05T01:08:40.620Z,8.40
2022-11-05T01:10:43.973Z,8.40
2022-11-05T01:12:48.294Z,8.30
2022-11-05T01:14:51.257Z,8.30
2022-11-05T01:16:53.961Z,8.30
2022-11-05T01:18:56.668Z,8.30
2022-11-05T01:20:59.416Z,8.30
2022-11-05T01:23:02.349Z,8.30
2022-11-05T01:25:07.236Z,8.30
2022-11-05T01:27:09.949Z,8.30
2022-11-05T01:29:14.253Z,8.30
2022-11-05T01:31:17.141Z,8.30
2022-11-05T01:33:19.830Z,8.30
2022-11-05T01:35:22.484Z,8.30
2022-11-05T01:37:25.299Z,8.30
2022-11-05T01:39:28.029Z,8.30
2022-11-05T01:41:30.759Z,8.30
2022-11-05T01:43:47.653Z,8.30
2022-11-05T01:45:53.753Z,8.30
2022-11-05T01:48:04.669Z,8.30
2022-11-05T01:50:24.689Z,8.30
2022-11-05T01:52:29.522Z,8.30
2022-11-05T01:54:33.924Z,8.40
2022-11-05T01:56:39.995Z,8.40
2022-11-05T01:58:48.986Z,8.40
2022-11-05T02:00:53.942Z,8.40
2022-11-05T02:02:56.993Z,8.40
2022-11-05T02:05:04.239Z,8.40
2022-11-05T02:07:10.011Z,8.40
2022-11-05T02:09:17.281Z,8.40
2022-11-05T02:11:21.157Z,8.40
2022-11-05T02:13:23.831Z,8.40
2022-11-05T02:15:37.484Z,8.40
2022-11-05T02:17:51.739Z,8.40
2022-11-05T02:20:33.090Z,8.40
2022-11-05T02:23:13.170Z,8.40
2022-11-05T02:25:40.143Z,8.40
2022-11-05T02:28:20.522Z,8.40
2022-11-05T02:30:39.390Z,8.40
2022-11-05T02:33:00.840Z,8.40
2022-11-05T02:35:13.732Z,8.40
2022-11-05T02:37:26.954Z,8.40
2022-11-05T02:39:40.102Z,8.40
2022-11-05T02:41:54.336Z,8.40
2022-11-05T02:44:10.975Z,8.40
2022-11-05T02:46:26.591Z,8.40
2022-11-05T02:48:36.762Z,8.40
2022-11-05T02:50:47.668Z,8.40
2022-11-05T02:52:59.945Z,8.30
2022-11-05T02:55:10.521Z,8.30
2022-11-05T02:57:14.008Z,8.30
2022-11-05T02:59:17.054Z,8.30
2022-11-05T03:01:21.189Z,8.30
2022-11-05T03:03:28.269Z,8.30
2022-11-05T03:05:40.458Z,8.30
2022-11-05T03:07:51.631Z,8.30
2022-11-05T03:10:23.461Z,8.20
2022-11-05T03:12:35.678Z,8.20
2022-11-05T03:14:44.463Z,8.30
2022-11-05T03:16:53.305Z,8.30
2022-11-05T03:19:01.761Z,8.30
2022-11-05T03:21:09.515Z,8.30
2022-11-05T03:23:21.231Z,8.30
2022-11-05T03:25:26.788Z,8.30
2022-11-05T03:27:34.730Z,8.30
2022-11-05T03:29:48.578Z,8.30
2022-11-05T03:31:55.929Z,8.30
2022-11-05T03:34:01.758Z,8.30
2022-11-05T03:36:09.065Z,8.30
2022-11-05T03:38:14.337Z,8.30
2022-11-05T03:40:19.088Z,8.20
2022-11-05T03:42:26.865Z,8.30
2022-11-05T03:44:34.069Z,8.30
2022-11-05T03:46:41.957Z,8.20
2022-11-05T03:48:49.926Z,8.20
2022-11-05T03:50:57.339Z,8.20
2022-11-05T03:53:04.634Z,8.20
2022-11-05T03:55:08.208Z,8.20
2022-11-05T03:57:15.243Z,8.20
2022-11-05T03:59:19.369Z,8.20
2022-11-05T04:01:22.222Z,8.20
2022-11-05T04:03:24.969Z,8.10
2022-11-05T04:05:29.271Z,8.10
2022-11-05T04:07:49.854Z,8.10
2022-11-05T04:10:11.680Z,8.00
2022-11-05T04:12:40.632Z,7.90
2022-11-05T04:14:43.560Z,7.90
2022-11-05T04:17:04.543Z,7.90
2022-11-05T04:19:08.096Z,7.80
2022-11-05T04:21:30.546Z,7.70
2022-11-05T04:23:51.066Z,7.70
2022-11-05T04:25:53.744Z,7.70
2022-11-05T04:28:01.612Z,7.60
2022-11-05T04:30:20.182Z,7.50
2022-11-05T04:32:23.115Z,7.40
2022-11-05T04:34:26.636Z,7.30
2022-11-05T04:36:31.132Z,7.20
2022-11-05T04:38:34.699Z,7.20
2022-11-05T04:40:38.123Z,7.10
2022-11-05T04:42:41.215Z,7.10
2022-11-05T04:44:44.138Z,7.00
2022-11-05T04:46:47.246Z,7.00
2022-11-05T04:48:49.944Z,7.00
2022-11-05T04:50:53.193Z,6.90
2022-11-05T04:52:57.645Z,6.90
2022-11-05T04:55:00.741Z,6.90
2022-11-05T04:57:03.436Z,7.00
2022-11-05T04:59:06.095Z,7.00
2022-11-05T05:01:13.665Z,7.00
2022-11-05T05:03:16.440Z,7.00
2022-11-05T05:05:19.391Z,7.00
2022-11-05T05:07:22.156Z,7.00
2022-11-05T05:09:26.340Z,7.00
2022-11-05T05:11:29.296Z,7.00
2022-11-05T05:13:32.428Z,7.10
2022-11-05T05:15:35.112Z,7.10
2022-11-05T05:17:37.796Z,7.20
2022-11-05T05:19:54.417Z,7.20
2022-11-05T05:21:57.214Z,7.20
2022-11-05T05:24:00.483Z,7.30
2022-11-05T05:26:04.632Z,7.30
2022-11-05T05:28:07.449Z,7.30
2022-11-05T05:30:11.513Z,7.30
2022-11-05T05:32:14.327Z,7.40
2022-11-05T05:34:17.072Z,7.40
2022-11-05T05:36:22.456Z,7.50
2022-11-05T05:38:25.255Z,7.50
2022-11-05T05:40:28.133Z,7.60
2022-11-05T05:42:32.482Z,7.60
2022-11-05T05:44:35.329Z,7.70
2022-11-05T05:46:38.036Z,7.70
2022-11-05T05:48:41.002Z,7.70
2022-11-05T05:50:43.670Z,7.80
2022-11-05T05:52:46.405Z,7.80
2022-11-05T05:54:49.076Z,7.80
2022-11-05T05:56:51.746Z,7.80
2022-11-05T05:58:55.766Z,7.90
2022-11-05T06:01:01.116Z,7.90
2022-11-05T06:03:03.856Z,7.90
2022-11-05T06:05:07.139Z,7.90
2022-11-05T06:07:09.996Z,7.90
2022-11-05T06:09:12.830Z,7.90
2022-11-05T06:11:15.952Z,7.90
2022-11-05T06:13:18.831Z,7.90
2022-11-05T06:15:22.836Z,7.90
2022-11-05T06:17:25.650Z,8.00
2022-11-05T06:19:29.113Z,7.90
2022-11-05T06:21:31.806Z,8.00
2022-11-05T06:23:36.206Z,8.00
2022-11-05T06:25:41.418Z,8.00
2022-11-05T06:27:44.358Z,8.00
2022-11-05T06:29:47.384Z,8.00
2022-11-05T06:31:51.530Z,8.00
2022-11-05T06:33:54.437Z,8.00
2022-11-05T06:35:59.824Z,8.10
2022-11-05T06:38:02.923Z,8.10
2022-11-05T06:40:06.725Z,8.10
2022-11-05T06:42:18.376Z,8.10
2022-11-05T06:44:22.317Z,8.10
2022-11-05T06:46:25.009Z,8.10
2022-11-05T06:48:29.574Z,8.10
2022-11-05T06:50:32.510Z,8.20
2022-11-05T06:52:40.777Z,8.20
2022-11-05T06:54:44.703Z,8.20
2022-11-05T06:56:47.445Z,8.20
2022-11-05T06:58:50.257Z,8.20
2022-11-05T07:00:53.127Z,8.20
2022-11-05T07:02:56.783Z,8.20
2022-11-05T07:05:00.777Z,8.30
2022-11-05T07:07:03.474Z,8.20
2022-11-05T07:09:06.392Z,8.30
2022-11-05T07:11:09.149Z,8.30
2022-11-05T07:13:12.709Z,8.30
2022-11-05T07:15:15.594Z,8.30
2022-11-05T07:17:18.738Z,8.40
2022-11-05T07:19:22.173Z,8.40
2022-11-05T07:21:26.249Z,8.40
2022-11-05T07:23:28.988Z,8.40
2022-11-05T07:25:33.663Z,8.40
2022-11-05T07:27:39.860Z,8.40
2022-11-05T07:29:42.585Z,8.40
2022-11-05T07:31:46.806Z,8.50
2022-11-05T07:33:49.812Z,8.50
2022-11-05T07:35:52.543Z,8.50
2022-11-05T07:37:57.230Z,8.50
2022-11-05T07:40:00.035Z,8.50
2022-11-05T07:42:02.763Z,8.50
2022-11-05T07:44:05.691Z,8.40
2022-11-05T07:46:13.547Z,8.40
2022-11-05T07:48:16.556Z,8.40
2022-11-05T07:50:21.744Z,8.30
2022-11-05T07:52:24.470Z,8.30
2022-11-05T07:54:28.509Z,8.30
2022-11-05T07:56:31.477Z,8.30
2022-11-05T07:58:36.941Z,8.30
2022-11-05T08:00:40.016Z,8.20
2022-11-05T08:02:43.530Z,8.20
2022-11-05T08:04:46.355Z,8.20
2022-11-05T08:06:49.057Z,8.20
2022-11-05T08:08:51.896Z,8.10
2022-11-05T08:11:02.584Z,8.10
2022-11-05T08:13:07.032Z,8.10
2022-11-05T08:15:10.784Z,8.10
2022-11-05T08:17:18.212Z,8.00
2022-11-05T08:19:21.171Z,8.00
2022-11-05T08:21:23.896Z,8.00
2022-11-05T08:23:26.990Z,8.00
2022-11-05T08:25:30.101Z,8.10
2022-11-05T08:27:34.479Z,8.10
2022-11-05T08:29:37.255Z,8.20
2022-11-05T08:31:40.070Z,8.30
2022-11-05T08:33:42.972Z,8.40
2022-11-05T08:35:45.694Z,8.50
2022-11-05T08:37:48.541Z,8.70
2022-11-05T08:39:51.599Z,8.70
2022-11-05T08:41:54.306Z,8.80
2022-11-05T08:43:58.392Z,8.90
2022-11-05T08:46:01.514Z,9.00
2022-11-05T08:48:06.386Z,9.10
2022-11-05T08:50:10.231Z,9.10
2022-11-05T08:52:12.962Z,9.20
2022-11-05T08:54:15.705Z,9.20
2022-11-05T08:56:18.455Z,9.30
2022-11-05T08:58:21.170Z,9.40
2022-11-05T09:00:25.624Z,9.40
2022-11-05T09:02:28.429Z,9.40
2022-11-05T09:04:31.442Z,9.40
2022-11-05T09:06:34.285Z,9.50
2022-11-05T09:08:37.138Z,9.60
2022-11-05T09:10:41.080Z,9.70
2022-11-05T09:12:43.762Z,9.70
2022-11-05T09:14:46.466Z,9.80
2022-11-05T09:16:50.542Z,9.90
2022-11-05T09:18:54.161Z,9.90
2022-11-05T09:20:56.896Z,10.00
2022-11-05T09:23:00.003Z,10.00
2022-11-05T09:25:02.904Z,10.10
2022-11-05T09:27:05.733Z,10.20
2022-11-05T09:29:14.080Z,10.20
2022-11-05T09:31:17.146Z,10.30
2022-11-05T09:33:23.263Z,10.20
2022-11-05T09:35:26.037Z,10.20
2022-11-05T09:37:29.186Z,10.20
2022-11-05T09:39:31.864Z,10.10
2022-11-05T09:41:38.089Z,10.10
2022-11-05T09:43:44.367Z,10.10
2022-11-05T09:45:49.252Z,10.00
2022-11-05T09:47:55.926Z,9.90
2022-11-05T09:50:03.344Z,9.80
2022-11-05T09:52:11.220Z,9.70
2022-11-05T09:54:15.973Z,9.70
2022-11-05T09:56:24.785Z,9.70
2022-11-05T09:58:36.969Z,9.70
2022-11-05T10:00:41.264Z,9.80
2022-11-05T10:02:49.394Z,9.90
2022-11-05T10:04:56.361Z,10.00
2022-11-05T10:07:02.625Z,10.20
2022-11-05T10:09:11.622Z,10.30
2022-11-05T10:11:18.742Z,10.30
2022-11-05T10:13:27.322Z,10.40
2022-11-05T10:15:33.970Z,10.50
2022-11-05T10:17:39.417Z,10.60
2022-11-05T10:19:44.789Z,10.60
2022-11-05T10:24:17.499Z,10.70
2022-11-05T10:26:23.664Z,10.70
2022-11-05T10:28:28.973Z,10.70
2022-11-05T10:30:32.692Z,10.70
2022-11-05T10:32:39.255Z,10.70
2022-11-05T10:34:43.256Z,10.70
2022-11-05T10:36:45.990Z,10.80
2022-11-05T10:38:48.750Z,11.00
2022-11-05T10:41:05.036Z,11.10
2022-11-05T10:43:14.109Z,11.30
2022-11-05T10:45:30.152Z,11.40
2022-11-05T10:47:57.598Z,11.40
2022-11-05T10:50:01.976Z,11.30
2022-11-05T10:52:18.731Z,11.20
2022-11-05T10:54:25.230Z,11.30
2022-11-05T10:56:37.432Z,11.30
2022-11-05T10:58:55.440Z,11.30
2022-11-05T11:01:08.929Z,11.30
2022-11-05T11:03:33.181Z,11.30
2022-11-05T11:05:38.604Z,11.40
2022-11-05T11:07:42.545Z,11.40
2022-11-05T11:09:49.883Z,11.40
2022-11-05T11:12:03.257Z,11.40
2022-11-05T11:14:18.741Z,11.40
2022-11-05T11:16:23.539Z,11.50
2022-11-05T11:18:34.674Z,11.70
2022-11-05T11:20:46.468Z,11.80
2022-11-05T11:23:04.533Z,11.80
2022-11-05T11:25:24.845Z,11.80
2022-11-05T11:27:30.923Z,11.90
2022-11-05T11:29:40.481Z,12.00
2022-11-05T11:31:45.025Z,11.90
2022-11-05T11:33:52.407Z,11.80
2022-11-05T11:35:55.636Z,11.70
2022-11-05T11:38:00.880Z,11.70
2022-11-05T11:40:12.697Z,11.70
2022-11-05T11:42:22.561Z,11.60
2022-11-05T11:44:30.908Z,11.50
2022-11-05T11:46:34.998Z,11.60
2022-11-05T11:48:40.952Z,11.60
2022-11-05T11:50:45.146Z,11.60
2022-11-05T11:52:48.064Z,11.60
2022-11-05T11:54:52.085Z,11.70
2022-11-05T11:56:54.846Z,11.60
2022-11-05T11:58:59.040Z,11.60
2022-11-05T12:01:38.691Z,11.60
2022-11-05T12:03:50.078Z,11.70
2022-11-05T12:05:59.328Z,11.80
2022-11-05T12:08:14.046Z,12.00
2022-11-05T12:10:28.918Z,12.10
2022-11-05T12:12:44.183Z,12.10
2022-11-05T12:14:55.565Z,12.10
2022-11-05T12:17:15.751Z,12.00
2022-11-05T12:19:30.499Z,11.90
2022-11-05T12:21:55.355Z,11.80
2022-11-05T12:24:14.390Z,11.60
2022-11-05T12:26:26.337Z,11.60
2022-11-05T12:29:17.470Z,11.50
2022-11-05T12:31:26.457Z,11.50
2022-11-05T12:33:42.098Z,11.60
2022-11-05T12:36:03.381Z,11.60
2022-11-05T12:38:12.812Z,11.70
2022-11-05T12:40:42.021Z,11.90
2022-11-05T12:42:58.390Z,12.20
2022-11-05T12:45:04.945Z,12.50
2022-11-05T12:47:18.637Z,12.70
2022-11-05T12:49:46.077Z,12.90
2022-11-05T12:52:01.390Z,12.80
2022-11-05T12:54:16.773Z,12.60
2022-11-05T12:56:26.929Z,12.50
2022-11-05T12:58:35.943Z,12.50
2022-11-05T13:00:41.513Z,12.40
2022-11-05T13:02:51.925Z,12.30
2022-11-05T13:05:01.465Z,12.20
2022-11-05T13:07:08.983Z,12.10
2022-11-05T13:09:15.702Z,12.00
2022-11-05T13:11:23.474Z,12.00
2022-11-05T13:13:32.161Z,12.00
2022-11-05T13:15:38.817Z,12.00
2022-11-05T13:17:52.534Z,11.90
2022-11-05T13:20:03.310Z,12.00
2022-11-05T13:22:17.204Z,12.00
2022-11-05T13:24:24.689Z,12.00
2022-11-05T13:26:31.201Z,12.00
2022-11-05T13:28:39.597Z,11.90
2022-11-05T13:30:46.493Z,11.90
2022-11-05T13:32:56.045Z,11.80
2022-11-05T13:35:03.556Z,11.80
2022-11-05T13:37:27.064Z,11.80
2022-11-05T13:39:34.906Z,11.90
2022-11-05T13:41:51.778Z,11.90
2022-11-05T13:44:15.871Z,11.90
2022-11-05T13:46:32.597Z,12.10
2022-11-05T13:48:57.796Z,12.10
2022-11-05T13:51:42.850Z,12.10
2022-11-05T13:54:19.754Z,12.20
2022-11-05T13:56:42.294Z,12.20
2022-11-05T13:59:11.752Z,12.20
2022-11-05T14:01:26.225Z,12.10
2022-11-05T14:03:29.692Z,12.10
2022-11-05T14:05:35.513Z,12.00
2022-11-05T14:07:46.136Z,11.90
2022-11-05T14:09:55.886Z,11.90
2022-11-05T14:12:00.145Z,11.80
2022-11-05T14:14:06.297Z,11.70
2022-11-05T14:16:11.730Z,11.50
2022-11-05T14:18:43.569Z,11.40
2022-11-05T14:20:59.319Z,11.30
2022-11-05T14:23:32.036Z,11.20
2022-11-05T14:26:14.290Z,11.10
2022-11-05T14:28:42.517Z,11.10
2022-11-05T14:30:47.252Z,11.00
2022-11-05T14:32:53.152Z,11.00
2022-11-05T14:35:01.822Z,11.00
2022-11-05T14:37:25.612Z,11.00
2022-11-05T14:39:30.231Z,11.00
2022-11-05T14:41:56.978Z,11.00
2022-11-05T14:44:02.246Z,11.00
2022-11-05T14:46:07.025Z,11.00
2022-11-05T14:48:34.117Z,11.00
2022-11-05T14:50:40.082Z,11.00
2022-11-05T14:52:53.221Z,11.00
2022-11-05T14:54:58.621Z,10.90
2022-11-05T14:57:03.459Z,10.90
2022-11-05T14:59:35.126Z,10.90
2022-11-05T15:01:57.108Z,10.90
2022-11-05T15:04:16.835Z,10.80
2022-11-05T15:06:28.580Z,10.80
2022-11-05T15:08:38.625Z,10.80
2022-11-05T15:10:44.411Z,10.70
2022-11-05T15:12:57.354Z,10.70
2022-11-05T15:15:02.145Z,10.70
2022-11-05T15:17:16.101Z,10.70
2022-11-05T15:19:23.421Z,10.60
2022-11-05T15:21:27.044Z,10.60
2022-11-05T15:23:39.064Z,10.60
2022-11-05T15:25:53.213Z,10.50
2022-11-05T15:28:06.422Z,10.40
2022-11-05T15:30:16.674Z,10.30
2022-11-05T15:32:24.301Z,10.20
2022-11-05T15:34:29.846Z,10.10
2022-11-05T15:36:33.203Z,10.10
2022-11-05T15:38:36.430Z,10.00
2022-11-05T15:40:39.128Z,9.90
2022-11-05T15:42:41.849Z,9.80
2022-11-05T15:44:47.844Z,9.80
2022-11-05T15:47:05.029Z,9.70
2022-11-05T15:49:08.898Z,9.70
2022-11-05T15:51:13.185Z,9.60
2022-11-05T15:53:44.108Z,9.50
2022-11-05T15:55:50.732Z,9.40
2022-11-05T15:57:57.867Z,9.40
2022-11-05T16:00:06.430Z,9.30
2022-11-05T16:02:29.327Z,9.20
2022-11-05T16:04:35.093Z,9.10
2022-11-05T16:06:40.378Z,9.10
2022-11-05T16:08:49.076Z,9.00
2022-11-05T16:10:54.433Z,8.90
2022-11-05T16:12:57.450Z,8.80
2022-11-05T16:15:05.250Z,8.70
2022-11-05T16:17:26.413Z,8.70
2022-11-05T16:19:41.830Z,8.60
2022-11-05T16:21:54.296Z,8.50
2022-11-05T16:23:59.009Z,8.50
2022-11-05T16:26:01.802Z,8.50
2022-11-05T16:28:06.061Z,8.50
2022-11-05T16:30:20.265Z,8.50
2022-11-05T16:32:30.623Z,8.40
2022-11-05T16:34:40.306Z,8.40
2022-11-05T16:36:43.155Z,8.30
2022-11-05T16:38:46.161Z,8.30
2022-11-05T16:40:48.877Z,8.30
2022-11-05T16:42:52.541Z,8.20
2022-11-05T16:44:56.229Z,8.10
2022-11-05T16:47:00.314Z,8.10
2022-11-05T16:49:03.197Z,8.10
2022-11-05T16:51:06.297Z,8.00
2022-11-05T16:53:09.254Z,7.90
2022-11-05T16:55:12.841Z,7.90
2022-11-05T16:57:24.970Z,7.90
2022-11-05T16:59:28.281Z,7.90
2022-11-05T17:01:31.233Z,7.90
2022-11-05T17:03:35.581Z,7.90
2022-11-05T17:05:38.601Z,7.90
2022-11-05T17:07:41.711Z,7.90
2022-11-05T17:09:44.785Z,7.90
2022-11-05T17:11:47.715Z,7.90
2022-11-05T17:13:50.950Z,7.90
2022-11-05T17:15:53.621Z,7.90
2022-11-05T17:17:57.044Z,7.90
2022-11-05T17:20:02.143Z,7.90
2022-11-05T17:22:05.046Z,7.80
2022-11-05T17:24:08.749Z,7.80
2022-11-05T17:26:12.915Z,7.80
2022-11-05T17:28:17.192Z,7.70
2022-11-05T17:30:20.472Z,7.60
2022-11-05T17:32:23.213Z,7.50
2022-11-05T17:34:26.176Z,7.50
2022-11-05T17:36:30.209Z,7.50
2022-11-05T17:38:33.202Z,7.40
2022-11-05T17:40:37.577Z,7.30
2022-11-05T17:42:40.270Z,7.30
2022-11-05T17:44:42.986Z,7.20
2022-11-05T17:46:45.664Z,7.10
2022-11-05T17:48:48.428Z,7.10
2022-11-05T17:50:51.884Z,7.10
2022-11-05T17:52:56.014Z,7.00
2022-11-05T17:54:58.904Z,7.10
2022-11-05T17:57:02.934Z,7.20
2022-11-05T17:59:05.783Z,7.20
2022-11-05T18:01:10.244Z,7.20
2022-11-05T18:03:14.651Z,7.20
2022-11-05T18:05:18.801Z,7.20
2022-11-05T18:07:21.871Z,7.20
2022-11-05T18:09:26.208Z,7.20
2022-11-05T18:11:29.306Z,7.10
2022-11-05T18:13:32.114Z,7.10
2022-11-05T18:15:37.885Z,7.10
2022-11-05T18:17:40.715Z,7.10
2022-11-05T18:19:43.402Z,7.10
2022-11-05T18:21:46.145Z,7.10
2022-11-05T18:23:48.968Z,7.20
2022-11-05T18:25:53.009Z,7.20
2022-11-05T18:27:55.694Z,7.20
2022-11-05T18:29:58.434Z,7.20
2022-11-05T18:32:01.311Z,7.30
2022-11-05T18:34:04.473Z,7.30
2022-11-05T18:36:16.885Z,7.30
2022-11-05T18:38:20.370Z,7.40
2022-11-05T18:40:23.675Z,7.40
2022-11-05T18:42:27.816Z,7.50
2022-11-05T18:44:34.918Z,7.50
2022-11-05T18:46:57.527Z,7.50
2022-11-05T18:49:01.944Z,7.50
2022-11-05T18:51:08.899Z,7.50
2022-11-05T18:53:11.703Z,7.50
2022-11-05T18:55:14.635Z,7.50
2022-11-05T18:57:17.357Z,7.50
2022-11-05T18:59:39.486Z,7.50
2022-11-05T19:01:43.566Z,7.50
2022-11-05T19:03:47.212Z,7.50
2022-11-05T19:05:50.141Z,7.50
2022-11-05T19:07:53.291Z,7.50
2022-11-05T19:09:56.010Z,7.50
2022-11-05T19:11:58.946Z,7.50
2022-11-05T19:14:04.617Z,7.50
2022-11-05T19:16:10.768Z,7.50
2022-11-05T19:18:14.123Z,7.50
2022-11-05T19:20:17.313Z,7.50
2022-11-05T19:22:20.143Z,7.50
2022-11-05T19:24:23.278Z,7.50
2022-11-05T19:26:28.877Z,7.50
2022-11-05T19:28:32.835Z,7.50
2022-11-05T19:30:36.975Z,7.50
2022-11-05T19:32:41.058Z,7.50
2022-11-05T19:34:44.033Z,7.50
2022-11-05T19:36:47.778Z,7.50
2022-11-05T19:38:54.447Z,7.50
2022-11-05T19:40:57.479Z,7.50
2022-11-05T19:43:00.338Z,7.50
2022-11-05T19:45:22.944Z,7.50
2022-11-05T19:47:26.119Z,7.50
2022-11-05T19:49:30.322Z,7.50
2022-11-05T19:51:34.205Z,7.50
2022-11-05T19:53:37.670Z,7.50
2022-11-05T19:55:41.441Z,7.50
2022-11-05T19:57:44.806Z,7.40
2022-11-05T19:59:47.819Z,7.40
2022-11-05T20:01:50.967Z,7.40
2022-11-05T20:03:56.293Z,7.40
2022-11-05T20:06:04.890Z,7.40
2022-11-05T20:08:08.150Z,7.40
2022-11-05T20:10:11.647Z,7.40
2022-11-05T20:12:14.373Z,7.40
2022-11-05T20:14:17.484Z,7.30
2022-11-05T20:16:22.031Z,7.30
2022-11-05T20:18:25.980Z,7.30
2022-11-05T20:20:28.814Z,7.30
2022-11-05T20:22:32.988Z,7.30
2022-11-05T20:24:36.213Z,7.20
2022-11-05T20:26:40.047Z,7.20
2022-11-05T20:28:44.461Z,7.20
2022-11-05T20:30:49.201Z,7.20
2022-11-05T20:32:54.920Z,7.10
2022-11-05T20:34:58.033Z,7.10
2022-11-05T20:37:01.957Z,7.10
2022-11-05T20:39:06.437Z,7.00
2022-11-05T20:41:11.088Z,7.00
2022-11-05T20:43:14.754Z,7.00
2022-11-05T20:45:17.979Z,7.00
2022-11-05T20:47:20.841Z,7.00
2022-11-05T20:49:25.638Z,6.90
2022-11-05T20:51:29.786Z,6.90
2022-11-05T20:53:32.657Z,6.90
2022-11-05T20:55:43.154Z,6.90
2022-11-05T20:57:46.576Z,6.90
2022-11-05T20:59:49.333Z,6.90
2022-11-05T21:01:52.914Z,6.90
2022-11-05T21:03:56.480Z,6.90
2022-11-05T21:06:00.381Z,6.90
2022-11-05T21:08:03.556Z,6.90
2022-11-05T21:10:07.270Z,6.90
2022-11-05T21:12:11.679Z,6.90
2022-11-05T21:14:15.523Z,6.80
2022-11-05T21:16:20.250Z,6.90
2022-11-05T21:18:24.817Z,6.80
2022-11-05T21:20:27.716Z,6.80
2022-11-05T21:22:30.937Z,6.80
2022-11-05T21:24:34.973Z,6.90
2022-11-05T21:26:37.806Z,6.90
2022-11-05T21:28:43.054Z,6.90
2022-11-05T21:30:48.905Z,6.90
2022-11-05T21:32:52.963Z,6.90
2022-11-05T21:34:55.696Z,6.90
2022-11-05T21:36:58.761Z,6.90
2022-11-05T21:39:02.822Z,6.90
2022-11-05T21:41:07.146Z,6.90
2022-11-05T21:43:10.748Z,6.90
2022-11-05T21:45:15.425Z,6.90
2022-11-05T21:47:18.885Z,6.90
2022-11-05T21:49:22.172Z,6.90
2022-11-05T21:51:42.714Z,7.00
2022-11-05T21:54:03.260Z,7.00
2022-11-05T21:56:25.453Z,7.00
2022-11-05T21:58:46.085Z,7.00
2022-11-05T22:00:51.020Z,7.00
2022-11-05T22:02:53.900Z,7.00
2022-11-05T22:05:00.396Z,7.00
2022-11-05T22:07:04.563Z,7.00
2022-11-05T22:09:07.741Z,7.00
2022-11-05T22:11:10.555Z,7.00
2022-11-05T22:13:13.880Z,7.00
2022-11-05T22:15:17.298Z,7.10
2022-11-05T22:17:21.685Z,7.00
2022-11-05T22:19:25.275Z,7.00
2022-11-05T22:21:28.588Z,7.00
2022-11-05T22:23:31.250Z,7.00
2022-11-05T22:25:34.079Z,7.00
2022-11-05T22:27:36.833Z,7.00
2022-11-05T22:29:40.151Z,7.00
2022-11-05T22:31:43.276Z,7.00
2022-11-05T22:33:47.756Z,7.00
2022-11-05T22:35:50.441Z,7.00
2022-11-05T22:37:53.203Z,7.00
2022-11-05T22:39:55.903Z,7.00
2022-11-05T22:42:03.131Z,7.00
2022-11-05T22:44:11.365Z,7.00
2022-11-05T22:46:16.014Z,7.00
2022-11-05T22:48:19.306Z,7.00
2022-11-05T22:50:23.313Z,7.00
2022-11-05T22:52:26.045Z,7.10
2022-11-05T22:54:28.946Z,7.10
2022-11-05T22:56:33.635Z,7.10
2022-11-05T22:58:36.931Z,7.10
2022-11-05T23:00:39.616Z,7.10
2022-11-05T23:02:42.577Z,7.10
2022-11-05T23:04:45.570Z,7.00
2022-11-05T23:07:07.474Z,7.00
2022-11-05T23:09:32.676Z,7.00
2022-11-05T23:11:38.601Z,7.00
2022-11-05T23:13:41.360Z,7.00
2022-11-05T23:16:01.694Z,6.90
2022-11-05T23:18:22.304Z,6.90
2022-11-05T23:20:42.555Z,6.90
2022-11-05T23:23:04.413Z,6.80
2022-11-05T23:25:10.239Z,6.80
2022-11-05T23:27:12.929Z,6.80
2022-11-05T23:29:15.603Z,6.80
2022-11-05T23:31:35.713Z,6.80
2022-11-05T23:33:38.618Z,6.80
2022-11-05T23:36:07.488Z,6.80
2022-11-05T23:38:29.405Z,6.70
2022-11-05T23:40:53.846Z,6.70
2022-11-05T23:43:14.610Z,6.70
2022-11-05T23:45:35.088Z,6.70
2022-11-05T23:47:55.120Z,6.60
2022-11-05T23:49:57.929Z,6.60
2022-11-05T23:52:00.685Z,6.60
2022-11-05T23:54:04.973Z,6.60
2022-11-05T23:56:10.270Z,6.60
2022-11-05T23:58:13.910Z,6.50
